createdAt,value
2022-09-03T00:03:29.020Z,100.00
2022-09-03T00:07:40.899Z,100.00
2022-09-03T00:11:55.444Z,100.00
2022-09-03T00:16:00.266Z,100.00
2022-09-03T00:20:08.986Z,100.00
2022-09-03T00:24:16.145Z,100.00
2022-09-03T00:28:26.027Z,100.00
2022-09-03T00:32:38.394Z,100.00
2022-09-03T00:36:44.104Z,100.00
2022-09-03T00:41:02.704Z,100.00
2022-09-03T00:45:17.208Z,100.00
2022-09-03T00:49:41.405Z,100.00
2022-09-03T00:53:56.276Z,100.00
2022-09-03T00:58:12.267Z,100.00
2022-09-03T01:02:23.153Z,100.00
2022-09-03T01:06:31.862Z,100.00
2022-09-03T01:10:46.843Z,100.00
2022-09-03T01:15:02.962Z,100.00
2022-09-03T01:19:18.614Z,100.00
2022-09-03T01:23:53.632Z,100.00
2022-09-03T01:28:13.641Z,100.00
2022-09-03T01:32:27.692Z,100.00
2022-09-03T01:36:39.263Z,100.00
2022-09-03T01:40:52.583Z,100.00
2022-09-03T01:45:21.928Z,100.00
2022-09-03T01:49:31.693Z,100.00
2022-09-03T01:53:54.099Z,100.00
2022-09-03T01:57:59.844Z,100.00
2022-09-03T02:02:13.041Z,100.00
2022-09-03T02:06:16.759Z,100.00
2022-09-03T02:10:21.872Z,100.00
2022-09-03T02:14:27.262Z,100.00
2022-09-03T02:18:35.344Z,100.00
2022-09-03T02:22:40.351Z,100.00
2022-09-03T02:26:43.555Z,100.00
2022-09-03T02:30:47.731Z,100.00
2022-09-03T02:34:52.249Z,100.00
2022-09-03T02:38:55.499Z,100.00
2022-09-03T02:42:59.911Z,100.00
2022-09-03T02:47:05.584Z,100.00
2022-09-03T02:51:14.395Z,100.00
2022-09-03T02:55:19.730Z,100.00
2022-09-03T02:59:23.837Z,100.00
2022-09-03T03:03:27.172Z,100.00
2022-09-03T03:07:36.094Z,100.00
2022-09-03T03:11:40.360Z,100.00
2022-09-03T03:15:45.495Z,100.00
2022-09-03T03:19:49.348Z,100.00
2022-09-03T03:23:54.023Z,100.00
2022-09-03T03:27:57.771Z,100.00
2022-09-03T03:32:00.782Z,100.00
2022-09-03T03:36:08.118Z,100.00
2022-09-03T03:40:13.713Z,100.00
2022-09-03T03:44:17.791Z,100.00
2022-09-03T03:48:21.591Z,100.00
2022-09-03T03:52:26.589Z,100.00
2022-09-03T03:56:31.956Z,100.00
2022-09-03T04:00:38.475Z,100.00
2022-09-03T04:04:41.614Z,100.00
2022-09-03T04:08:46.777Z,100.00
2022-09-03T04:12:57.648Z,100.00
2022-09-03T04:17:01.500Z,100.00
2022-09-03T04:21:07.204Z,100.00
2022-09-03T04:25:10.685Z,100.00
2022-09-03T04:29:16.639Z,100.00
2022-09-03T04:33:20.261Z,100.00
2022-09-03T04:37:23.599Z,100.00
2022-09-03T04:41:29.334Z,100.00
2022-09-03T04:45:34.431Z,100.00
2022-09-03T04:49:38.541Z,100.00
2022-09-03T04:53:43.333Z,100.00
2022-09-03T04:57:46.609Z,100.00
2022-09-03T05:01:52.822Z,100.00
2022-09-03T05:05:56.924Z,100.00
2022-09-03T05:10:00.098Z,100.00
2022-09-03T05:14:03.543Z,100.00
2022-09-03T05:18:08.665Z,100.00
2022-09-03T05:22:11.747Z,100.00
2022-09-03T05:26:16.545Z,100.00
2022-09-03T05:30:19.609Z,100.00
2022-09-03T05:34:24.455Z,100.00
2022-09-03T05:38:27.524Z,100.00
2022-09-03T05:42:31.404Z,100.00
2022-09-03T05:46:38.294Z,100.00
2022-09-03T05:50:43.184Z,100.00
2022-09-03T05:54:47.564Z,100.00
2022-09-03T05:58:52.983Z,100.00
2022-09-03T06:02:56.424Z,100.00
2022-09-03T06:07:00.960Z,100.00
2022-09-03T06:11:04.573Z,100.00
2022-09-03T06:15:09.375Z,100.00
2022-09-03T06:19:14.429Z,100.00
2022-09-03T06:23:20.360Z,100.00
2022-09-03T06:27:23.359Z,100.00
2022-09-03T06:31:27.252Z,100.00
2022-09-03T06:35:31.021Z,100.00
2022-09-03T06:39:42.446Z,100.00
2022-09-03T06:43:46.571Z,100.00
2022-09-03T06:47:50.510Z,100.00
2022-09-03T06:51:57.106Z,100.00
2022-09-03T06:56:12.539Z,100.00
2022-09-03T07:00:16.818Z,100.00
2022-09-03T07:04:20.364Z,100.00
2022-09-03T07:08:25.607Z,100.00
2022-09-03T07:12:30.266Z,100.00
2022-09-03T07:16:35.877Z,100.00
2022-09-03T07:20:38.948Z,100.00
2022-09-03T07:24:43.169Z,100.00
2022-09-03T07:28:48.939Z,100.00
2022-09-03T07:32:52.210Z,100.00
2022-09-03T07:36:58.009Z,100.00
2022-09-03T07:41:03.024Z,97.89
2022-09-03T07:45:10.847Z,97.52
2022-09-03T07:49:14.249Z,96.74
2022-09-03T07:53:18.093Z,94.48
2022-09-03T07:57:21.512Z,90.84
2022-09-03T08:01:28.757Z,91.14
2022-09-03T08:05:33.920Z,89.90
2022-09-03T08:09:38.102Z,89.63
2022-09-03T08:13:43.214Z,88.07
2022-09-03T08:17:48.163Z,85.51
2022-09-03T08:21:51.777Z,82.82
2022-09-03T08:25:59.829Z,81.63
2022-09-03T08:30:06.924Z,82.35
2022-09-03T08:34:13.202Z,81.36
2022-09-03T08:38:19.474Z,81.68
2022-09-03T08:42:29.950Z,82.47
2022-09-03T08:46:45.066Z,77.90
2022-09-03T08:50:56.136Z,78.32
2022-09-03T08:55:14.377Z,77.23
2022-09-03T08:59:17.470Z,73.57
2022-09-03T09:03:40.455Z,71.96
2022-09-03T09:07:53.399Z,75.08
2022-09-03T09:12:08.780Z,73.70
2022-09-03T09:16:20.285Z,73.59
2022-09-03T09:20:33.172Z,74.53
2022-09-03T09:24:43.308Z,69.56
2022-09-03T09:28:51.050Z,72.93
2022-09-03T09:32:55.114Z,68.00
2022-09-03T09:36:58.222Z,70.26
2022-09-03T09:41:13.914Z,74.13
2022-09-03T09:45:17.184Z,70.71
2022-09-03T09:49:32.383Z,70.64
2022-09-03T09:53:36.339Z,69.04
2022-09-03T09:57:40.777Z,68.12
2022-09-03T10:01:45.962Z,71.28
2022-09-03T10:06:02.287Z,71.33
2022-09-03T10:10:08.795Z,70.78
2022-09-03T10:14:21.767Z,69.14
2022-09-03T10:18:38.231Z,66.15
2022-09-03T10:22:56.458Z,67.27
2022-09-03T10:27:00.208Z,66.63
2022-09-03T10:31:24.303Z,64.52
2022-09-03T10:35:32.110Z,65.13
2022-09-03T10:39:52.131Z,62.35
2022-09-03T10:44:16.507Z,66.70
2022-09-03T10:48:46.085Z,68.29
2022-09-03T10:53:07.099Z,74.13
2022-09-03T10:57:20.331Z,70.56
2022-09-03T11:01:33.476Z,74.69
2022-09-03T11:05:41.207Z,71.41
2022-09-03T11:09:49.458Z,66.31
2022-09-03T11:13:56.303Z,65.99
2022-09-03T11:18:04.941Z,67.76
2022-09-03T11:22:11.481Z,74.68
2022-09-03T11:26:19.786Z,74.23
2022-09-03T11:30:25.935Z,75.17
2022-09-03T11:34:33.226Z,70.71
2022-09-03T11:38:39.587Z,73.86
2022-09-03T11:42:44.771Z,71.07
2022-09-03T11:46:56.951Z,71.39
2022-09-03T11:51:00.457Z,70.08
2022-09-03T11:55:05.431Z,70.51
2022-09-03T11:59:20.715Z,69.32
2022-09-03T12:03:28.632Z,66.27
2022-09-03T12:07:49.330Z,70.56
2022-09-03T12:12:02.990Z,66.58
2022-09-03T12:16:31.795Z,67.23
2022-09-03T12:20:34.931Z,67.08
2022-09-03T12:24:38.571Z,71.66
2022-09-03T12:28:47.968Z,67.33
2022-09-03T12:32:52.800Z,66.10
2022-09-03T12:36:56.165Z,70.38
2022-09-03T12:45:25.902Z,73.57
2022-09-03T12:49:30.623Z,72.49
2022-09-03T12:53:34.554Z,74.98
2022-09-03T12:57:41.759Z,68.06
2022-09-03T13:01:50.444Z,62.36
2022-09-03T13:05:57.763Z,65.16
2022-09-03T13:10:05.314Z,67.65
2022-09-03T13:14:11.268Z,70.47
2022-09-03T13:18:28.322Z,70.39
2022-09-03T13:22:41.637Z,68.31
2022-09-03T13:26:53.117Z,68.48
2022-09-03T13:31:03.040Z,67.07
2022-09-03T13:35:13.390Z,69.86
2022-09-03T13:39:26.529Z,68.20
2022-09-03T13:43:35.435Z,79.42
2022-09-03T13:48:04.535Z,73.35
2022-09-03T13:52:22.540Z,68.49
2022-09-03T13:56:37.207Z,63.66
2022-09-03T14:00:47.911Z,66.13
2022-09-03T14:05:05.022Z,66.48
2022-09-03T14:09:16.902Z,66.22
2022-09-03T14:13:26.359Z,65.93
2022-09-03T14:17:39.058Z,64.55
2022-09-03T14:21:46.237Z,61.17
2022-09-03T14:25:55.548Z,62.17
2022-09-03T14:30:01.794Z,65.35
2022-09-03T14:34:16.885Z,71.54
2022-09-03T14:38:51.886Z,78.43
2022-09-03T14:43:09.643Z,78.99
2022-09-03T14:47:29.638Z,75.93
2022-09-03T14:51:51.417Z,65.29
2022-09-03T14:56:13.705Z,64.31
2022-09-03T15:00:20.401Z,63.04
2022-09-03T15:04:46.599Z,70.46
2022-09-03T15:09:09.022Z,76.17
2022-09-03T15:13:18.976Z,67.09
2022-09-03T15:17:35.666Z,64.65
2022-09-03T15:21:53.818Z,72.03
2022-09-03T15:26:25.861Z,80.37
2022-09-03T15:30:38.238Z,74.28
2022-09-03T15:35:03.889Z,74.55
2022-09-03T15:39:11.974Z,75.72
2022-09-03T15:43:21.945Z,67.66
2022-09-03T15:47:51.723Z,62.95
2022-09-03T15:52:12.329Z,62.44
2022-09-03T15:56:22.021Z,64.39
2022-09-03T16:00:25.252Z,70.06
2022-09-03T16:04:42.046Z,70.41
2022-09-03T16:08:54.770Z,67.55
2022-09-03T16:13:05.004Z,68.58
2022-09-03T16:17:16.804Z,67.67
2022-09-03T16:21:27.620Z,73.05
2022-09-03T16:25:35.704Z,80.80
2022-09-03T16:29:39.084Z,87.98
2022-09-03T16:33:51.973Z,90.60
2022-09-03T16:38:06.824Z,93.68
2022-09-03T16:42:20.177Z,93.98
2022-09-03T16:46:31.303Z,95.64
2022-09-03T16:50:52.043Z,94.75
2022-09-03T16:55:10.081Z,94.05
2022-09-03T16:59:30.778Z,94.52
2022-09-03T17:04:01.920Z,99.41
2022-09-03T17:08:20.309Z,99.76
2022-09-03T17:12:28.556Z,99.29
2022-09-03T17:16:47.551Z,100.00
2022-09-03T17:21:06.628Z,100.00
2022-09-03T17:25:22.474Z,100.00
2022-09-03T17:29:48.241Z,100.00
2022-09-03T17:34:08.871Z,100.00
2022-09-03T17:38:44.074Z,100.00
2022-09-03T17:42:56.121Z,100.00
2022-09-03T17:47:12.519Z,100.00
2022-09-03T17:51:28.590Z,100.00
2022-09-03T17:55:39.982Z,100.00
2022-09-03T17:59:47.364Z,100.00
2022-09-03T18:03:54.978Z,100.00
2022-09-03T18:08:06.440Z,100.00
2022-09-03T18:12:14.090Z,100.00
2022-09-03T18:16:22.946Z,100.00
2022-09-03T18:20:58.833Z,100.00
2022-09-03T18:25:32.911Z,100.00
2022-09-03T18:30:01.047Z,100.00
2022-09-03T18:34:22.366Z,100.00
2022-09-03T18:38:46.594Z,100.00
2022-09-03T18:43:18.673Z,100.00
2022-09-03T18:48:02.376Z,100.00
2022-09-03T18:52:36.548Z,100.00
2022-09-03T18:57:02.668Z,100.00
2022-09-03T19:01:30.421Z,100.00
2022-09-03T19:06:01.405Z,100.00
2022-09-03T19:10:27.094Z,100.00
2022-09-03T19:14:55.834Z,100.00
2022-09-03T19:19:32.769Z,100.00
2022-09-03T19:23:53.398Z,100.00
2022-09-03T19:28:34.023Z,100.00
2022-09-03T19:33:05.291Z,100.00
2022-09-03T19:37:32.251Z,100.00
2022-09-03T19:42:01.396Z,100.00
2022-09-03T19:46:30.550Z,100.00
2022-09-03T19:51:00.071Z,100.00
2022-09-03T19:55:24.464Z,100.00
2022-09-03T19:59:55.049Z,100.00
2022-09-03T20:04:19.517Z,100.00
2022-09-03T20:08:42.071Z,100.00
2022-09-03T20:12:51.521Z,100.00
2022-09-03T20:17:08.984Z,100.00
2022-09-03T20:21:18.887Z,100.00
2022-09-03T20:25:43.920Z,100.00
2022-09-03T20:30:01.217Z,100.00
2022-09-03T20:34:18.785Z,100.00
2022-09-03T20:38:34.720Z,100.00
2022-09-03T20:43:11.672Z,100.00
2022-09-03T20:47:35.549Z,100.00
2022-09-03T20:51:47.886Z,100.00
2022-09-03T20:55:54.929Z,100.00
2022-09-03T21:00:06.217Z,100.00
2022-09-03T21:04:26.538Z,100.00
2022-09-03T21:08:50.023Z,100.00
2022-09-03T21:13:02.705Z,100.00
2022-09-03T21:17:24.883Z,100.00
2022-09-03T21:21:40.514Z,100.00
2022-09-03T21:25:55.309Z,100.00
2022-09-03T21:30:03.728Z,100.00
2022-09-03T21:34:15.030Z,100.00
2022-09-03T21:38:23.254Z,100.00
2022-09-03T21:42:35.126Z,100.00
2022-09-03T21:46:58.598Z,100.00
2022-09-03T21:51:07.167Z,100.00
2022-09-03T21:55:22.553Z,100.00
2022-09-03T21:59:56.706Z,100.00
2022-09-03T22:03:59.885Z,100.00
2022-09-03T22:08:17.520Z,100.00
2022-09-03T22:12:32.767Z,100.00
2022-09-03T22:16:41.326Z,100.00
2022-09-03T22:21:00.388Z,100.00
2022-09-03T22:25:10.147Z,100.00
2022-09-03T22:29:28.378Z,100.00
2022-09-03T22:33:39.439Z,100.00
2022-09-03T22:38:00.336Z,100.00
2022-09-03T22:42:31.469Z,100.00
2022-09-03T22:46:45.593Z,100.00
2022-09-03T22:50:56.962Z,100.00
2022-09-03T22:55:21.428Z,100.00
2022-09-03T22:59:29.489Z,100.00
2022-09-03T23:03:45.119Z,100.00
2022-09-03T23:07:55.565Z,100.00
2022-09-03T23:12:04.458Z,100.00
2022-09-03T23:16:14.806Z,100.00
2022-09-03T23:20:23.707Z,100.00
2022-09-03T23:24:32.183Z,100.00
2022-09-03T23:28:38.043Z,100.00
2022-09-03T23:32:41.149Z,100.00
2022-09-03T23:37:16.010Z,100.00
2022-09-03T23:41:28.858Z,100.00
2022-09-03T23:45:46.220Z,100.00
2022-09-03T23:50:00.863Z,100.00
2022-09-03T23:54:13.693Z,100.00
2022-09-03T23:58:28.816Z,100.00
